createdAt,value
2023-04-28T00:04:34.152Z,96650.31
2023-04-28T00:09:25.900Z,96641.91
2023-04-28T00:14:17.795Z,96638.00
2023-04-28T00:19:09.704Z,96635.59
2023-04-28T00:24:01.399Z,96629.94
2023-04-28T00:28:53.074Z,96628.22
2023-04-28T00:33:44.834Z,96630.56
2023-04-28T00:38:36.765Z,96622.09
2023-04-28T00:43:28.984Z,96613.19
2023-04-28T00:48:22.514Z,96613.66
2023-04-28T00:53:14.710Z,96602.56
2023-04-28T00:58:08.062Z,96602.81
2023-04-28T01:03:00.113Z,96604.88
2023-04-28T01:07:52.366Z,96600.41
2023-04-28T01:12:44.052Z,96594.91
2023-04-28T01:17:35.824Z,96595.72
2023-04-28T01:22:27.528Z,96599.09
2023-04-28T01:27:19.203Z,96598.53
2023-04-28T01:32:11.047Z,96599.31
2023-04-28T01:37:02.744Z,96591.66
2023-04-28T01:41:54.442Z,96592.16
2023-04-28T01:46:46.170Z,96581.97
2023-04-28T01:51:37.904Z,96586.41
2023-04-28T01:56:29.590Z,96594.06
2023-04-28T02:01:21.286Z,96584.28
2023-04-28T02:06:13.073Z,96597.75
2023-04-28T02:11:04.852Z,96601.47
2023-04-28T02:15:56.618Z,96606.25
2023-04-28T02:20:48.323Z,96606.09
2023-04-28T02:25:40.024Z,96603.94
2023-04-28T02:30:31.732Z,96620.97
2023-04-28T02:35:23.397Z,96637.66
2023-04-28T02:40:15.135Z,96646.47
2023-04-28T02:45:08.107Z,96631.28
2023-04-28T02:49:59.798Z,96628.84
2023-04-28T02:54:54.430Z,96623.59
2023-04-28T02:59:46.153Z,96620.22
2023-04-28T03:04:37.854Z,96606.75
2023-04-28T03:09:29.530Z,96621.75
2023-04-28T03:14:21.207Z,96613.34
2023-04-28T03:19:12.910Z,96613.50
2023-04-28T03:24:05.807Z,96613.19
2023-04-28T03:28:57.722Z,96628.94
2023-04-28T03:33:49.384Z,96630.28
2023-04-28T03:38:41.735Z,96654.19
2023-04-28T03:43:35.677Z,96634.84
2023-04-28T03:48:27.602Z,96614.44
2023-04-28T03:53:19.331Z,96618.56
2023-04-28T03:58:11.105Z,96601.66
2023-04-28T04:08:12.421Z,96606.91
2023-04-28T04:13:04.172Z,96600.88
2023-04-28T04:18:01.979Z,96580.91
2023-04-28T04:22:54.160Z,96567.44
2023-04-28T04:27:45.950Z,96567.78
2023-04-28T04:32:37.713Z,96567.44
2023-04-28T04:37:30.016Z,96571.22
2023-04-28T04:42:30.047Z,96568.59
2023-04-28T04:47:23.033Z,96577.75
2023-04-28T04:52:20.840Z,96576.69
2023-04-28T05:02:20.349Z,96555.63
2023-04-28T05:12:44.082Z,96539.88
2023-04-28T05:17:53.234Z,96532.94
2023-04-28T05:27:52.616Z,96537.03
2023-04-28T05:32:44.798Z,96538.81
2023-04-28T05:37:39.174Z,96525.88
2023-04-28T05:43:01.831Z,96512.91
2023-04-28T05:47:57.576Z,96508.06
2023-04-28T05:52:54.136Z,96516.03
2023-04-28T05:57:54.154Z,96511.22
2023-04-28T06:02:49.248Z,96528.03
2023-04-28T06:12:48.193Z,96545.94
2023-04-28T06:22:48.620Z,96558.75
2023-04-28T06:27:41.385Z,96559.78
2023-04-28T06:37:51.796Z,96567.22
2023-04-28T06:42:44.688Z,96550.91
2023-04-28T06:47:38.309Z,96550.09
2023-04-28T06:52:41.190Z,96542.44
2023-04-28T06:57:34.136Z,96556.31
2023-04-28T07:02:30.905Z,96555.66
2023-04-28T07:07:23.895Z,96547.06
2023-04-28T07:27:38.219Z,96547.19
2023-04-28T07:32:37.920Z,96557.56
2023-04-28T07:37:37.957Z,96549.22
2023-04-28T07:47:40.736Z,96556.22
2023-04-28T07:52:39.309Z,96573.84
2023-04-28T07:57:31.541Z,96605.88
2023-04-28T08:02:33.878Z,96594.16
2023-04-28T08:07:28.595Z,96597.03
2023-04-28T08:12:21.322Z,96573.50
2023-04-28T08:17:16.877Z,96577.19
2023-04-28T08:22:10.269Z,96605.56
2023-04-28T08:27:03.770Z,96593.44
2023-04-28T08:31:57.805Z,96588.00
2023-04-28T08:37:00.166Z,96587.53
2023-04-28T08:47:16.394Z,96577.66
2023-04-28T08:52:22.944Z,96595.91
2023-04-28T09:02:22.452Z,96628.34
2023-04-28T09:07:15.310Z,96620.28
2023-04-28T09:12:08.216Z,96626.91
2023-04-28T09:22:24.737Z,96637.59
2023-04-28T09:27:29.504Z,96646.97
2023-04-28T09:32:28.784Z,96651.97
2023-04-28T09:37:25.373Z,96653.69
2023-04-28T09:47:46.604Z,96663.28
2023-04-28T09:57:58.489Z,96650.88
2023-04-28T10:13:26.716Z,96649.09
2023-04-28T10:23:52.430Z,96639.34
2023-04-28T10:39:37.513Z,96639.88
2023-04-28T10:50:02.350Z,96642.41
2023-04-28T11:12:00.854Z,96656.91
2023-04-28T11:22:28.105Z,96657.22
2023-04-28T11:37:44.738Z,96652.31
2023-04-28T11:42:37.610Z,96659.22
2023-04-28T11:53:01.412Z,96647.31
2023-04-28T12:03:35.920Z,96633.72
2023-04-28T12:08:31.148Z,96639.19
2023-04-28T12:18:33.968Z,96641.34
2023-04-28T12:28:42.977Z,96650.88
2023-04-28T12:38:56.692Z,96636.16
2023-04-28T12:54:00.173Z,96639.16
2023-04-28T12:58:51.900Z,96629.03
2023-04-28T13:03:44.418Z,96635.41
2023-04-28T13:08:37.148Z,96630.16
2023-04-28T13:18:38.085Z,96626.50
2023-04-28T13:33:43.155Z,96588.81
2023-04-28T13:38:35.552Z,96598.34
2023-04-28T13:43:27.387Z,96585.91
2023-04-28T13:48:31.295Z,96588.16
2023-04-28T13:53:25.041Z,96594.41
2023-04-28T13:58:17.324Z,96583.34
2023-04-28T14:03:09.759Z,96568.16
2023-04-28T14:13:12.614Z,96563.78
2023-04-28T14:18:04.608Z,96546.44
2023-04-28T14:22:57.053Z,96555.44
2023-04-28T14:33:03.907Z,96533.41
2023-04-28T14:48:16.495Z,96550.63
2023-04-28T14:53:16.705Z,96532.88
2023-04-28T14:58:09.888Z,96528.09
2023-04-28T15:08:33.574Z,96506.25
2023-04-28T15:18:40.014Z,96522.88
2023-04-28T15:28:43.299Z,96497.09
2023-04-28T15:43:51.042Z,96506.63
2023-04-28T15:54:05.342Z,96480.63
2023-04-28T16:04:11.748Z,96461.53
2023-04-28T16:14:11.095Z,96464.38
2023-04-28T16:34:41.666Z,96450.94
2023-04-28T16:39:34.479Z,96453.09
2023-04-28T17:20:43.373Z,96454.88
2023-04-28T17:25:42.497Z,96439.69
2023-04-28T17:30:40.731Z,96442.66
2023-04-28T17:35:36.098Z,96439.28
2023-04-28T17:40:27.896Z,96450.16
2023-04-28T17:45:19.573Z,96455.47
2023-04-28T18:00:30.156Z,96446.84
2023-04-28T18:05:33.805Z,96460.66
2023-04-28T18:10:32.095Z,96459.09
2023-04-28T18:15:24.974Z,96462.31
2023-04-28T18:20:18.916Z,96466.84
2023-04-28T18:25:11.443Z,96474.28
2023-04-28T18:30:04.151Z,96472.94
2023-04-28T18:34:58.174Z,96479.84
2023-04-28T18:39:56.868Z,96468.72
2023-04-28T18:44:54.165Z,96478.78
2023-04-28T19:00:01.323Z,96478.22
2023-04-28T19:04:54.069Z,96494.06
2023-04-28T19:09:46.002Z,96493.00
2023-04-28T19:14:38.419Z,96498.81
2023-04-28T19:24:40.714Z,96504.31
2023-04-28T19:45:09.062Z,96513.75
2023-04-28T19:50:03.586Z,96513.94
2023-04-28T19:55:10.298Z,96517.31
2023-04-28T20:00:02.632Z,96519.66
2023-04-28T20:05:01.036Z,96521.47
2023-04-28T20:09:56.838Z,96516.63
2023-04-28T20:14:52.992Z,96504.22
2023-04-28T20:19:44.846Z,96498.28
2023-04-28T20:24:37.899Z,96508.06
2023-04-28T20:29:36.170Z,96486.94
2023-04-28T20:39:37.037Z,96501.88
2023-04-28T20:44:28.796Z,96495.91
2023-04-28T20:49:20.914Z,96489.78
2023-04-28T21:09:34.317Z,96485.78
2023-04-28T21:19:33.930Z,96490.56
2023-04-28T21:24:27.585Z,96488.19
2023-04-28T21:29:19.805Z,96491.47
2023-04-28T21:34:11.475Z,96477.53
2023-04-28T21:49:19.300Z,96474.53
2023-04-28T21:54:13.589Z,96463.28
2023-04-28T21:59:13.635Z,96467.81
2023-04-28T22:04:09.232Z,96478.34
2023-04-28T22:09:05.849Z,96481.44
2023-04-28T22:14:00.270Z,96480.63
2023-04-28T22:24:09.333Z,96474.44
2023-04-28T22:29:05.808Z,96460.69
2023-04-28T22:33:57.514Z,96461.72
2023-04-28T22:38:49.574Z,96461.25
2023-04-28T22:43:41.297Z,96447.59
2023-04-28T22:53:41.990Z,96456.16
2023-04-28T23:03:43.739Z,96448.28
2023-04-28T23:08:35.965Z,96458.34
2023-04-28T23:18:36.063Z,96457.66
2023-04-28T23:23:28.288Z,96463.34
2023-04-28T23:28:24.761Z,96452.78
2023-04-28T23:54:12.582Z,96454.56
2023-04-28T23:59:05.570Z,96455.38
